sensor_id;sensor_type;location;lat;lon;timestamp;P1;durP1;ratioP1;P2;durP2;ratioP2
74920;SDS011;63483;47.384;8.860;2023-02-22T00:00:24;5.38;;;2.90;;
74920;SDS011;63483;47.384;8.860;2023-02-22T00:03:27;6.72;;;2.92;;
74920;SDS011;63483;47.384;8.860;2023-02-22T00:05:59;7.63;;;3.80;;
74920;SDS011;63483;47.384;8.860;2023-02-22T00:08:33;7.25;;;3.53;;
74920;SDS011;63483;47.384;8.860;2023-02-22T00:11:00;7.65;;;3.70;;
74920;SDS011;63483;47.384;8.860;2023-02-22T00:13:29;5.82;;;3.35;;
74920;SDS011;63483;47.384;8.860;2023-02-22T00:15:55;8.48;;;3.97;;
74920;SDS011;63483;47.384;8.860;2023-02-22T00:18:21;6.27;;;3.73;;
74920;SDS011;63483;47.384;8.860;2023-02-22T00:20:47;8.60;;;3.92;;
74920;SDS011;63483;47.384;8.860;2023-02-22T00:23:13;5.93;;;3.23;;
74920;SDS011;63483;47.384;8.860;2023-02-22T00:25:43;7.63;;;3.10;;
74920;SDS011;63483;47.384;8.860;2023-02-22T00:28:08;6.23;;;3.47;;
74920;SDS011;63483;47.384;8.860;2023-02-22T00:30:34;7.10;;;3.30;;
74920;SDS011;63483;47.384;8.860;2023-02-22T00:32:59;5.68;;;3.15;;
74920;SDS011;63483;47.384;8.860;2023-02-22T00:35:26;5.07;;;2.77;;
74920;SDS011;63483;47.384;8.860;2023-02-22T00:37:54;6.07;;;3.70;;
74920;SDS011;63483;47.384;8.860;2023-02-22T00:40:25;6.27;;;3.20;;
74920;SDS011;63483;47.384;8.860;2023-02-22T00:42:54;6.25;;;4.05;;
74920;SDS011;63483;47.384;8.860;2023-02-22T00:45:21;7.47;;;3.92;;
74920;SDS011;63483;47.384;8.860;2023-02-22T00:47:48;7.70;;;3.55;;
74920;SDS011;63483;47.384;8.860;2023-02-22T00:50:14;6.93;;;3.20;;
74920;SDS011;63483;47.384;8.860;2023-02-22T00:52:43;5.93;;;3.22;;
74920;SDS011;63483;47.384;8.860;2023-02-22T00:55:10;8.53;;;3.73;;
74920;SDS011;63483;47.384;8.860;2023-02-22T00:57:40;6.25;;;3.20;;
74920;SDS011;63483;47.384;8.860;2023-02-22T01:00:06;6.80;;;3.70;;
74920;SDS011;63483;47.384;8.860;2023-02-22T01:02:39;6.03;;;3.65;;
74920;SDS011;63483;47.384;8.860;2023-02-22T01:05:06;6.25;;;3.97;;
74920;SDS011;63483;47.384;8.860;2023-02-22T01:07:36;6.78;;;3.80;;
74920;SDS011;63483;47.384;8.860;2023-02-22T01:10:03;5.63;;;3.15;;
74920;SDS011;63483;47.384;8.860;2023-02-22T01:12:29;5.77;;;3.53;;
74920;SDS011;63483;47.384;8.860;2023-02-22T01:14:54;5.07;;;2.80;;
74920;SDS011;63483;47.384;8.860;2023-02-22T01:17:23;5.70;;;3.45;;
74920;SDS011;63483;47.384;8.860;2023-02-22T01:19:50;6.43;;;3.08;;
74920;SDS011;63483;47.384;8.860;2023-02-22T01:22:16;7.90;;;2.95;;
74920;SDS011;63483;47.384;8.860;2023-02-22T01:24:42;7.40;;;3.30;;
74920;SDS011;63483;47.384;8.860;2023-02-22T01:27:07;5.83;;;3.03;;
74920;SDS011;63483;47.384;8.860;2023-02-22T01:29:34;6.13;;;3.38;;
74920;SDS011;63483;47.384;8.860;2023-02-22T01:32:00;6.37;;;3.20;;
74920;SDS011;63483;47.384;8.860;2023-02-22T01:34:25;5.20;;;3.00;;
74920;SDS011;63483;47.384;8.860;2023-02-22T01:36:51;9.03;;;3.13;;
74920;SDS011;63483;47.384;8.860;2023-02-22T01:39:16;5.90;;;3.37;;
74920;SDS011;63483;47.384;8.860;2023-02-22T01:41:43;78.18;;;5.20;;
74920;SDS011;63483;47.384;8.860;2023-02-22T01:44:26;6.07;;;2.53;;
74920;SDS011;63483;47.384;8.860;2023-02-22T01:46:57;6.00;;;2.95;;
74920;SDS011;63483;47.384;8.860;2023-02-22T01:49:31;6.43;;;3.30;;
74920;SDS011;63483;47.384;8.860;2023-02-22T01:52:02;5.97;;;3.17;;
74920;SDS011;63483;47.384;8.860;2023-02-22T01:54:34;5.63;;;2.53;;
74920;SDS011;63483;47.384;8.860;2023-02-22T01:57:08;9.50;;;3.23;;
74920;SDS011;63483;47.384;8.860;2023-02-22T01:59:42;5.50;;;2.85;;
74920;SDS011;63483;47.384;8.860;2023-02-22T02:02:10;6.30;;;3.50;;
74920;SDS011;63483;47.384;8.860;2023-02-22T02:04:37;6.57;;;3.53;;
74920;SDS011;63483;47.384;8.860;2023-02-22T02:07:04;6.57;;;3.15;;
74920;SDS011;63483;47.384;8.860;2023-02-22T02:09:52;6.43;;;3.00;;
74920;SDS011;63483;47.384;8.860;2023-02-22T02:12:21;5.32;;;3.03;;
74920;SDS011;63483;47.384;8.860;2023-02-22T02:14:47;5.00;;;2.20;;
74920;SDS011;63483;47.384;8.860;2023-02-22T02:17:14;6.60;;;2.63;;
74920;SDS011;63483;47.384;8.860;2023-02-22T02:22:43;5.50;;;3.03;;
74920;SDS011;63483;47.384;8.860;2023-02-22T02:25:23;5.78;;;2.63;;
74920;SDS011;63483;47.384;8.860;2023-02-22T02:31:19;5.15;;;2.72;;
74920;SDS011;63483;47.384;8.860;2023-02-22T02:33:49;4.70;;;2.90;;
74920;SDS011;63483;47.384;8.860;2023-02-22T02:36:19;4.28;;;2.25;;
74920;SDS011;63483;47.384;8.860;2023-02-22T02:41:36;4.93;;;2.25;;
74920;SDS011;63483;47.384;8.860;2023-02-22T02:44:26;6.10;;;2.83;;
74920;SDS011;63483;47.384;8.860;2023-02-22T02:47:00;5.57;;;2.73;;
74920;SDS011;63483;47.384;8.860;2023-02-22T02:49:33;6.40;;;3.05;;
74920;SDS011;63483;47.384;8.860;2023-02-22T02:52:03;6.68;;;2.75;;
74920;SDS011;63483;47.384;8.860;2023-02-22T02:54:29;6.47;;;2.85;;
74920;SDS011;63483;47.384;8.860;2023-02-22T02:56:57;5.30;;;2.55;;
74920;SDS011;63483;47.384;8.860;2023-02-22T02:59:30;10.60;;;3.40;;
74920;SDS011;63483;47.384;8.860;2023-02-22T03:13:14;5.60;;;2.67;;
74920;SDS011;63483;47.384;8.860;2023-02-22T03:18:29;8.17;;;3.03;;
74920;SDS011;63483;47.384;8.860;2023-02-22T03:23:47;7.30;;;3.35;;
74920;SDS011;63483;47.384;8.860;2023-02-22T03:26:21;5.05;;;2.60;;
74920;SDS011;63483;47.384;8.860;2023-02-22T03:28:55;4.95;;;2.78;;
74920;SDS011;63483;47.384;8.860;2023-02-22T03:31:24;5.07;;;3.17;;
74920;SDS011;63483;47.384;8.860;2023-02-22T03:34:18;6.10;;;2.80;;
74920;SDS011;63483;47.384;8.860;2023-02-22T03:37:34;4.63;;;2.40;;
74920;SDS011;63483;47.384;8.860;2023-02-22T03:39:43;5.60;;;2.40;;
74920;SDS011;63483;47.384;8.860;2023-02-22T03:42:12;5.03;;;2.28;;
74920;SDS011;63483;47.384;8.860;2023-02-22T03:44:42;5.20;;;2.43;;
74920;SDS011;63483;47.384;8.860;2023-02-22T03:47:11;3.72;;;2.05;;
74920;SDS011;63483;47.384;8.860;2023-02-22T03:52:39;3.90;;;2.17;;
74920;SDS011;63483;47.384;8.860;2023-02-22T03:55:07;7.18;;;2.08;;
74920;SDS011;63483;47.384;8.860;2023-02-22T03:57:35;4.43;;;2.23;;
74920;SDS011;63483;47.384;8.860;2023-02-22T04:00:05;3.72;;;2.03;;
74920;SDS011;63483;47.384;8.860;2023-02-22T04:02:34;4.25;;;2.47;;
74920;SDS011;63483;47.384;8.860;2023-02-22T04:05:00;3.87;;;1.70;;
74920;SDS011;63483;47.384;8.860;2023-02-22T04:07:25;4.88;;;2.20;;
74920;SDS011;63483;47.384;8.860;2023-02-22T04:09:51;5.17;;;2.33;;
74920;SDS011;63483;47.384;8.860;2023-02-22T04:12:16;4.67;;;2.27;;
74920;SDS011;63483;47.384;8.860;2023-02-22T04:14:41;6.07;;;2.27;;
74920;SDS011;63483;47.384;8.860;2023-02-22T04:17:07;6.77;;;2.30;;
74920;SDS011;63483;47.384;8.860;2023-02-22T04:19:32;4.27;;;2.10;;
74920;SDS011;63483;47.384;8.860;2023-02-22T04:21:58;3.50;;;2.03;;
74920;SDS011;63483;47.384;8.860;2023-02-22T04:24:24;5.37;;;2.27;;
74920;SDS011;63483;47.384;8.860;2023-02-22T04:26:49;4.30;;;2.03;;
74920;SDS011;63483;47.384;8.860;2023-02-22T04:29:14;4.95;;;2.40;;
74920;SDS011;63483;47.384;8.860;2023-02-22T04:31:40;3.73;;;1.63;;
74920;SDS011;63483;47.384;8.860;2023-02-22T04:34:05;4.37;;;1.73;;
74920;SDS011;63483;47.384;8.860;2023-02-22T04:36:30;4.10;;;2.07;;
74920;SDS011;63483;47.384;8.860;2023-02-22T04:38:57;3.80;;;1.90;;
74920;SDS011;63483;47.384;8.860;2023-02-22T04:41:23;3.65;;;1.83;;
74920;SDS011;63483;47.384;8.860;2023-02-22T04:43:48;7.20;;;2.53;;
74920;SDS011;63483;47.384;8.860;2023-02-22T04:46:14;4.20;;;1.43;;
74920;SDS011;63483;47.384;8.860;2023-02-22T04:48:39;4.97;;;2.30;;
74920;SDS011;63483;47.384;8.860;2023-02-22T04:51:05;4.83;;;2.23;;
74920;SDS011;63483;47.384;8.860;2023-02-22T04:53:30;4.10;;;1.50;;
74920;SDS011;63483;47.384;8.860;2023-02-22T04:55:56;5.83;;;2.20;;
74920;SDS011;63483;47.384;8.860;2023-02-22T04:58:21;5.27;;;1.73;;
74920;SDS011;63483;47.384;8.860;2023-02-22T05:00:47;4.75;;;1.90;;
74920;SDS011;63483;47.384;8.860;2023-02-22T05:03:12;5.23;;;2.13;;
74920;SDS011;63483;47.384;8.860;2023-02-22T05:05:37;4.50;;;2.00;;
74920;SDS011;63483;47.384;8.860;2023-02-22T05:08:03;6.40;;;1.93;;
74920;SDS011;63483;47.384;8.860;2023-02-22T05:10:28;3.23;;;1.83;;
74920;SDS011;63483;47.384;8.860;2023-02-22T05:12:54;3.20;;;1.38;;
74920;SDS011;63483;47.384;8.860;2023-02-22T05:15:19;3.83;;;1.60;;
74920;SDS011;63483;47.384;8.860;2023-02-22T05:17:49;4.13;;;2.13;;
74920;SDS011;63483;47.384;8.860;2023-02-22T05:20:25;3.42;;;1.33;;
74920;SDS011;63483;47.384;8.860;2023-02-22T05:22:54;3.80;;;1.67;;
74920;SDS011;63483;47.384;8.860;2023-02-22T05:25:23;4.43;;;1.38;;
74920;SDS011;63483;47.384;8.860;2023-02-22T05:27:50;3.88;;;1.35;;
74920;SDS011;63483;47.384;8.860;2023-02-22T05:30:20;3.20;;;1.20;;
74920;SDS011;63483;47.384;8.860;2023-02-22T05:32:48;4.55;;;1.48;;
74920;SDS011;63483;47.384;8.860;2023-02-22T05:35:14;5.18;;;1.67;;
74920;SDS011;63483;47.384;8.860;2023-02-22T05:37:39;100.20;;;5.30;;
74920;SDS011;63483;47.384;8.860;2023-02-22T05:40:05;4.33;;;2.27;;
74920;SDS011;63483;47.384;8.860;2023-02-22T05:42:31;4.35;;;2.17;;
74920;SDS011;63483;47.384;8.860;2023-02-22T05:44:57;5.13;;;1.53;;
74920;SDS011;63483;47.384;8.860;2023-02-22T05:47:24;5.13;;;2.27;;
74920;SDS011;63483;47.384;8.860;2023-02-22T05:49:50;4.72;;;1.77;;
74920;SDS011;63483;47.384;8.860;2023-02-22T05:52:15;4.60;;;1.73;;
74920;SDS011;63483;47.384;8.860;2023-02-22T05:54:40;5.00;;;1.53;;
74920;SDS011;63483;47.384;8.860;2023-02-22T05:57:06;5.07;;;1.98;;
74920;SDS011;63483;47.384;8.860;2023-02-22T05:59:31;4.97;;;1.63;;
74920;SDS011;63483;47.384;8.860;2023-02-22T06:01:57;4.30;;;1.67;;
74920;SDS011;63483;47.384;8.860;2023-02-22T06:04:22;3.50;;;1.27;;
74920;SDS011;63483;47.384;8.860;2023-02-22T06:06:47;4.13;;;1.52;;
74920;SDS011;63483;47.384;8.860;2023-02-22T06:09:13;3.80;;;1.10;;
74920;SDS011;63483;47.384;8.860;2023-02-22T06:11:38;3.40;;;1.30;;
74920;SDS011;63483;47.384;8.860;2023-02-22T06:14:04;2.20;;;1.30;;
74920;SDS011;63483;47.384;8.860;2023-02-22T06:16:29;2.80;;;1.57;;
74920;SDS011;63483;47.384;8.860;2023-02-22T06:18:55;3.80;;;1.67;;
74920;SDS011;63483;47.384;8.860;2023-02-22T06:21:21;4.22;;;1.40;;
74920;SDS011;63483;47.384;8.860;2023-02-22T06:23:47;3.40;;;1.87;;
74920;SDS011;63483;47.384;8.860;2023-02-22T06:29:34;6.45;;;1.60;;
74920;SDS011;63483;47.384;8.860;2023-02-22T06:31:59;4.90;;;1.70;;
74920;SDS011;63483;47.384;8.860;2023-02-22T06:34:25;4.20;;;1.70;;
74920;SDS011;63483;47.384;8.860;2023-02-22T06:36:50;3.30;;;1.50;;
74920;SDS011;63483;47.384;8.860;2023-02-22T06:39:15;3.60;;;1.45;;
74920;SDS011;63483;47.384;8.860;2023-02-22T06:41:43;3.80;;;1.53;;
74920;SDS011;63483;47.384;8.860;2023-02-22T06:44:10;6.75;;;2.10;;
74920;SDS011;63483;47.384;8.860;2023-02-22T06:46:36;5.72;;;1.70;;
74920;SDS011;63483;47.384;8.860;2023-02-22T06:49:02;5.47;;;2.42;;
74920;SDS011;63483;47.384;8.860;2023-02-22T06:51:27;5.97;;;2.47;;
74920;SDS011;63483;47.384;8.860;2023-02-22T06:53:53;5.40;;;2.38;;
74920;SDS011;63483;47.384;8.860;2023-02-22T06:56:19;9.33;;;2.47;;
74920;SDS011;63483;47.384;8.860;2023-02-22T06:58:44;4.57;;;1.70;;
74920;SDS011;63483;47.384;8.860;2023-02-22T07:01:10;4.82;;;2.05;;
74920;SDS011;63483;47.384;8.860;2023-02-22T07:03:35;6.23;;;2.13;;
74920;SDS011;63483;47.384;8.860;2023-02-22T07:06:01;6.05;;;2.47;;
74920;SDS011;63483;47.384;8.860;2023-02-22T07:08:27;9.50;;;2.53;;
74920;SDS011;63483;47.384;8.860;2023-02-22T07:10:52;5.57;;;1.98;;
74920;SDS011;63483;47.384;8.860;2023-02-22T07:13:18;9.60;;;2.70;;
74920;SDS011;63483;47.384;8.860;2023-02-22T07:15:44;7.13;;;2.43;;
74920;SDS011;63483;47.384;8.860;2023-02-22T07:18:09;7.80;;;2.63;;
74920;SDS011;63483;47.384;8.860;2023-02-22T07:20:36;7.00;;;2.30;;
74920;SDS011;63483;47.384;8.860;2023-02-22T07:23:01;7.82;;;1.95;;
74920;SDS011;63483;47.384;8.860;2023-02-22T07:25:27;6.67;;;1.83;;
74920;SDS011;63483;47.384;8.860;2023-02-22T07:27:53;5.60;;;1.95;;
74920;SDS011;63483;47.384;8.860;2023-02-22T07:32:49;8.85;;;2.97;;
74920;SDS011;63483;47.384;8.860;2023-02-22T07:35:16;15.73;;;3.93;;
74920;SDS011;63483;47.384;8.860;2023-02-22T07:37:44;10.07;;;2.55;;
74920;SDS011;63483;47.384;8.860;2023-02-22T07:40:11;7.15;;;2.85;;
74920;SDS011;63483;47.384;8.860;2023-02-22T07:42:50;8.87;;;3.03;;
74920;SDS011;63483;47.384;8.860;2023-02-22T07:45:20;9.13;;;2.50;;
74920;SDS011;63483;47.384;8.860;2023-02-22T07:47:46;7.35;;;2.60;;
74920;SDS011;63483;47.384;8.860;2023-02-22T07:50:12;5.68;;;2.60;;
74920;SDS011;63483;47.384;8.860;2023-02-22T07:52:38;7.20;;;2.63;;
74920;SDS011;63483;47.384;8.860;2023-02-22T07:55:04;7.87;;;2.90;;
74920;SDS011;63483;47.384;8.860;2023-02-22T07:57:31;6.47;;;2.30;;
74920;SDS011;63483;47.384;8.860;2023-02-22T07:59:56;6.45;;;2.90;;
74920;SDS011;63483;47.384;8.860;2023-02-22T08:02:22;6.13;;;2.87;;
74920;SDS011;63483;47.384;8.860;2023-02-22T08:04:49;5.65;;;2.42;;
74920;SDS011;63483;47.384;8.860;2023-02-22T08:07:14;5.47;;;3.20;;
74920;SDS011;63483;47.384;8.860;2023-02-22T08:09:40;9.07;;;3.30;;
74920;SDS011;63483;47.384;8.860;2023-02-22T08:12:05;6.77;;;2.80;;
74920;SDS011;63483;47.384;8.860;2023-02-22T08:14:30;6.80;;;2.40;;
74920;SDS011;63483;47.384;8.860;2023-02-22T08:16:56;6.07;;;2.60;;
74920;SDS011;63483;47.384;8.860;2023-02-22T08:19:21;4.93;;;2.50;;
74920;SDS011;63483;47.384;8.860;2023-02-22T08:21:46;6.10;;;2.43;;
74920;SDS011;63483;47.384;8.860;2023-02-22T08:24:12;6.00;;;2.70;;
74920;SDS011;63483;47.384;8.860;2023-02-22T08:26:42;4.73;;;2.00;;
74920;SDS011;63483;47.384;8.860;2023-02-22T08:29:09;4.68;;;2.15;;
74920;SDS011;63483;47.384;8.860;2023-02-22T08:31:34;6.53;;;2.60;;
74920;SDS011;63483;47.384;8.860;2023-02-22T08:33:59;6.33;;;2.67;;
74920;SDS011;63483;47.384;8.860;2023-02-22T08:36:25;6.03;;;2.47;;
74920;SDS011;63483;47.384;8.860;2023-02-22T08:38:51;6.68;;;3.03;;
74920;SDS011;63483;47.384;8.860;2023-02-22T08:41:16;5.87;;;3.20;;
74920;SDS011;63483;47.384;8.860;2023-02-22T08:43:42;6.43;;;2.58;;
74920;SDS011;63483;47.384;8.860;2023-02-22T08:46:07;10.93;;;3.43;;
74920;SDS011;63483;47.384;8.860;2023-02-22T08:48:32;5.30;;;2.43;;
74920;SDS011;63483;47.384;8.860;2023-02-22T08:50:58;8.03;;;3.03;;
74920;SDS011;63483;47.384;8.860;2023-02-22T08:53:23;6.87;;;3.40;;
74920;SDS011;63483;47.384;8.860;2023-02-22T08:55:48;8.40;;;3.73;;
74920;SDS011;63483;47.384;8.860;2023-02-22T08:58:14;6.67;;;2.90;;
74920;SDS011;63483;47.384;8.860;2023-02-22T09:00:39;6.85;;;2.95;;
74920;SDS011;63483;47.384;8.860;2023-02-22T09:03:06;5.50;;;3.00;;
74920;SDS011;63483;47.384;8.860;2023-02-22T09:05:34;10.73;;;3.15;;
74920;SDS011;63483;47.384;8.860;2023-02-22T09:08:00;8.70;;;3.78;;
74920;SDS011;63483;47.384;8.860;2023-02-22T09:10:27;9.73;;;3.23;;
74920;SDS011;63483;47.384;8.860;2023-02-22T09:12:55;12.48;;;4.15;;
74920;SDS011;63483;47.384;8.860;2023-02-22T09:15:21;8.95;;;3.65;;
74920;SDS011;63483;47.384;8.860;2023-02-22T09:17:47;8.63;;;3.47;;
74920;SDS011;63483;47.384;8.860;2023-02-22T09:20:13;8.60;;;4.47;;
74920;SDS011;63483;47.384;8.860;2023-02-22T09:22:42;6.82;;;3.80;;
74920;SDS011;63483;47.384;8.860;2023-02-22T09:25:09;10.27;;;4.30;;
74920;SDS011;63483;47.384;8.860;2023-02-22T09:27:34;10.85;;;5.43;;
74920;SDS011;63483;47.384;8.860;2023-02-22T09:30:00;10.97;;;5.90;;
74920;SDS011;63483;47.384;8.860;2023-02-22T09:32:26;11.60;;;5.70;;
74920;SDS011;63483;47.384;8.860;2023-02-22T09:34:52;12.02;;;7.25;;
74920;SDS011;63483;47.384;8.860;2023-02-22T09:37:18;17.08;;;8.32;;
74920;SDS011;63483;47.384;8.860;2023-02-22T09:39:43;13.17;;;7.77;;
74920;SDS011;63483;47.384;8.860;2023-02-22T09:42:29;15.33;;;7.67;;
74920;SDS011;63483;47.384;8.860;2023-02-22T09:47:28;19.03;;;8.93;;
74920;SDS011;63483;47.384;8.860;2023-02-22T09:50:11;16.65;;;8.65;;
74920;SDS011;63483;47.384;8.860;2023-02-22T09:58:37;16.73;;;9.20;;
74920;SDS011;63483;47.384;8.860;2023-02-22T10:01:10;17.88;;;10.20;;
74920;SDS011;63483;47.384;8.860;2023-02-22T10:03:45;17.45;;;9.20;;
74920;SDS011;63483;47.384;8.860;2023-02-22T10:06:16;20.98;;;10.48;;
74920;SDS011;63483;47.384;8.860;2023-02-22T10:08:45;18.20;;;9.27;;
74920;SDS011;63483;47.384;8.860;2023-02-22T10:11:15;18.75;;;9.30;;
74920;SDS011;63483;47.384;8.860;2023-02-22T10:17:23;17.45;;;9.13;;
74920;SDS011;63483;47.384;8.860;2023-02-22T10:19:42;17.48;;;9.85;;
74920;SDS011;63483;47.384;8.860;2023-02-22T10:22:13;16.70;;;9.90;;
74920;SDS011;63483;47.384;8.860;2023-02-22T10:27:21;18.13;;;10.18;;
74920;SDS011;63483;47.384;8.860;2023-02-22T10:30:13;20.50;;;11.52;;
74920;SDS011;63483;47.384;8.860;2023-02-22T10:32:44;19.52;;;10.23;;
74920;SDS011;63483;47.384;8.860;2023-02-22T10:35:21;18.37;;;9.57;;
74920;SDS011;63483;47.384;8.860;2023-02-22T10:37:51;19.67;;;10.48;;
74920;SDS011;63483;47.384;8.860;2023-02-22T10:40:21;16.80;;;9.93;;
74920;SDS011;63483;47.384;8.860;2023-02-22T10:42:56;20.08;;;10.25;;
74920;SDS011;63483;47.384;8.860;2023-02-22T10:47:50;18.10;;;10.73;;
74920;SDS011;63483;47.384;8.860;2023-02-22T10:50:19;17.48;;;10.75;;
74920;SDS011;63483;47.384;8.860;2023-02-22T10:52:46;17.60;;;9.60;;
74920;SDS011;63483;47.384;8.860;2023-02-22T10:55:12;19.20;;;10.10;;
74920;SDS011;63483;47.384;8.860;2023-02-22T10:57:40;15.50;;;8.60;;
74920;SDS011;63483;47.384;8.860;2023-02-22T11:02:58;15.95;;;9.07;;
74920;SDS011;63483;47.384;8.860;2023-02-22T11:07:50;18.47;;;8.97;;
74920;SDS011;63483;47.384;8.860;2023-02-22T11:10:19;19.00;;;10.35;;
74920;SDS011;63483;47.384;8.860;2023-02-22T11:12:55;20.60;;;10.43;;
74920;SDS011;63483;47.384;8.860;2023-02-22T11:17:52;16.90;;;10.00;;
74920;SDS011;63483;47.384;8.860;2023-02-22T11:20:22;19.55;;;11.00;;
74920;SDS011;63483;47.384;8.860;2023-02-22T11:23:02;20.73;;;11.25;;
74920;SDS011;63483;47.384;8.860;2023-02-22T11:25:31;18.90;;;9.37;;
74920;SDS011;63483;47.384;8.860;2023-02-22T11:28:09;21.10;;;10.80;;
74920;SDS011;63483;47.384;8.860;2023-02-22T11:30:41;16.45;;;10.88;;
74920;SDS011;63483;47.384;8.860;2023-02-22T11:33:20;18.25;;;11.85;;
74920;SDS011;63483;47.384;8.860;2023-02-22T11:36:00;19.45;;;11.85;;
74920;SDS011;63483;47.384;8.860;2023-02-22T11:38:32;18.30;;;9.90;;
74920;SDS011;63483;47.384;8.860;2023-02-22T11:41:13;20.02;;;10.60;;
74920;SDS011;63483;47.384;8.860;2023-02-22T11:43:47;17.75;;;10.43;;
74920;SDS011;63483;47.384;8.860;2023-02-22T11:49:00;17.27;;;10.02;;
74920;SDS011;63483;47.384;8.860;2023-02-22T11:56:55;18.45;;;10.43;;
74920;SDS011;63483;47.384;8.860;2023-02-22T12:08:40;19.30;;;11.23;;
74920;SDS011;63483;47.384;8.860;2023-02-22T12:11:14;16.90;;;10.07;;
74920;SDS011;63483;47.384;8.860;2023-02-22T12:13:53;20.80;;;12.10;;
74920;SDS011;63483;47.384;8.860;2023-02-22T12:16:42;19.23;;;11.02;;
74920;SDS011;63483;47.384;8.860;2023-02-22T12:19:35;17.93;;;11.37;;
74920;SDS011;63483;47.384;8.860;2023-02-22T12:22:07;16.83;;;10.73;;
74920;SDS011;63483;47.384;8.860;2023-02-22T12:24:39;17.90;;;11.18;;
74920;SDS011;63483;47.384;8.860;2023-02-22T12:29:50;19.90;;;11.93;;
74920;SDS011;63483;47.384;8.860;2023-02-22T12:34:58;17.80;;;10.95;;
74920;SDS011;63483;47.384;8.860;2023-02-22T12:40:06;16.48;;;10.30;;
74920;SDS011;63483;47.384;8.860;2023-02-22T12:48:47;19.85;;;11.38;;
74920;SDS011;63483;47.384;8.860;2023-02-22T12:51:30;18.35;;;10.77;;
74920;SDS011;63483;47.384;8.860;2023-02-22T12:57:15;21.30;;;12.43;;
74920;SDS011;63483;47.384;8.860;2023-02-22T13:00:04;18.67;;;10.57;;
74920;SDS011;63483;47.384;8.860;2023-02-22T13:02:42;20.45;;;12.02;;
74920;SDS011;63483;47.384;8.860;2023-02-22T13:05:15;17.77;;;11.77;;
74920;SDS011;63483;47.384;8.860;2023-02-22T13:13:44;22.67;;;12.90;;
74920;SDS011;63483;47.384;8.860;2023-02-22T13:16:30;17.60;;;11.18;;
74920;SDS011;63483;47.384;8.860;2023-02-22T13:22:08;18.70;;;11.80;;
74920;SDS011;63483;47.384;8.860;2023-02-22T13:30:17;20.63;;;12.05;;
74920;SDS011;63483;47.384;8.860;2023-02-22T13:38:30;19.88;;;12.40;;
74920;SDS011;63483;47.384;8.860;2023-02-22T13:41:36;21.52;;;12.57;;
74920;SDS011;63483;47.384;8.860;2023-02-22T13:47:23;18.40;;;11.57;;
74920;SDS011;63483;47.384;8.860;2023-02-22T13:52:56;18.65;;;11.05;;
74920;SDS011;63483;47.384;8.860;2023-02-22T13:55:25;18.60;;;12.25;;
74920;SDS011;63483;47.384;8.860;2023-02-22T13:58:02;17.90;;;11.35;;
74920;SDS011;63483;47.384;8.860;2023-02-22T14:13:08;17.73;;;10.87;;
74920;SDS011;63483;47.384;8.860;2023-02-22T14:15:34;19.35;;;10.85;;
74920;SDS011;63483;47.384;8.860;2023-02-22T14:18:01;16.90;;;11.23;;
74920;SDS011;63483;47.384;8.860;2023-02-22T14:22:57;17.50;;;10.33;;
74920;SDS011;63483;47.384;8.860;2023-02-22T14:25:42;19.27;;;11.32;;
74920;SDS011;63483;47.384;8.860;2023-02-22T14:31:05;15.33;;;10.20;;
74920;SDS011;63483;47.384;8.860;2023-02-22T14:36:14;17.00;;;10.63;;
74920;SDS011;63483;47.384;8.860;2023-02-22T14:38:42;14.98;;;9.43;;
74920;SDS011;63483;47.384;8.860;2023-02-22T14:41:10;17.05;;;10.77;;
74920;SDS011;63483;47.384;8.860;2023-02-22T14:43:38;17.80;;;10.53;;
74920;SDS011;63483;47.384;8.860;2023-02-22T14:46:05;15.32;;;9.57;;
74920;SDS011;63483;47.384;8.860;2023-02-22T14:48:40;17.17;;;9.40;;
74920;SDS011;63483;47.384;8.860;2023-02-22T14:51:15;16.55;;;10.68;;
74920;SDS011;63483;47.384;8.860;2023-02-22T14:54:05;15.82;;;10.27;;
74920;SDS011;63483;47.384;8.860;2023-02-22T15:01:44;16.08;;;9.82;;
74920;SDS011;63483;47.384;8.860;2023-02-22T15:06:52;15.57;;;9.30;;
74920;SDS011;63483;47.384;8.860;2023-02-22T15:09:20;16.50;;;9.17;;
74920;SDS011;63483;47.384;8.860;2023-02-22T15:12:09;16.45;;;9.70;;
74920;SDS011;63483;47.384;8.860;2023-02-22T15:14:37;14.30;;;8.77;;
74920;SDS011;63483;47.384;8.860;2023-02-22T15:17:17;15.05;;;8.75;;
74920;SDS011;63483;47.384;8.860;2023-02-22T15:19:45;13.40;;;8.85;;
74920;SDS011;63483;47.384;8.860;2023-02-22T15:22:33;14.00;;;9.10;;
74920;SDS011;63483;47.384;8.860;2023-02-22T15:25:04;13.88;;;8.85;;
74920;SDS011;63483;47.384;8.860;2023-02-22T15:27:31;13.95;;;8.52;;
74920;SDS011;63483;47.384;8.860;2023-02-22T15:30:02;13.90;;;7.78;;
74920;SDS011;63483;47.384;8.860;2023-02-22T15:35:04;14.00;;;8.17;;
74920;SDS011;63483;47.384;8.860;2023-02-22T15:37:35;13.23;;;9.00;;
74920;SDS011;63483;47.384;8.860;2023-02-22T15:40:08;16.35;;;8.98;;
74920;SDS011;63483;47.384;8.860;2023-02-22T15:42:45;15.00;;;8.33;;
74920;SDS011;63483;47.384;8.860;2023-02-22T15:45:16;12.32;;;8.18;;
74920;SDS011;63483;47.384;8.860;2023-02-22T15:47:44;15.65;;;9.90;;
74920;SDS011;63483;47.384;8.860;2023-02-22T15:55:17;15.55;;;8.95;;
74920;SDS011;63483;47.384;8.860;2023-02-22T15:57:43;16.95;;;9.43;;
74920;SDS011;63483;47.384;8.860;2023-02-22T16:00:19;15.97;;;9.30;;
74920;SDS011;63483;47.384;8.860;2023-02-22T16:02:55;13.38;;;8.75;;
74920;SDS011;63483;47.384;8.860;2023-02-22T16:05:27;13.68;;;9.80;;
74920;SDS011;63483;47.384;8.860;2023-02-22T16:08:00;17.97;;;9.80;;
74920;SDS011;63483;47.384;8.860;2023-02-22T16:10:27;14.68;;;9.55;;
74920;SDS011;63483;47.384;8.860;2023-02-22T16:13:06;14.30;;;9.40;;
74920;SDS011;63483;47.384;8.860;2023-02-22T16:15:34;17.65;;;10.90;;
74920;SDS011;63483;47.384;8.860;2023-02-22T16:18:15;16.48;;;10.35;;
74920;SDS011;63483;47.384;8.860;2023-02-22T16:20:41;18.93;;;10.57;;
74920;SDS011;63483;47.384;8.860;2023-02-22T16:23:23;16.88;;;9.63;;
74920;SDS011;63483;47.384;8.860;2023-02-22T16:26:00;17.87;;;10.37;;
74920;SDS011;63483;47.384;8.860;2023-02-22T16:28:46;17.58;;;9.90;;
74920;SDS011;63483;47.384;8.860;2023-02-22T16:31:18;19.25;;;10.35;;
74920;SDS011;63483;47.384;8.860;2023-02-22T16:33:49;22.50;;;12.23;;
74920;SDS011;63483;47.384;8.860;2023-02-22T16:36:15;17.67;;;11.60;;
74920;SDS011;63483;47.384;8.860;2023-02-22T16:38:41;19.27;;;10.30;;
74920;SDS011;63483;47.384;8.860;2023-02-22T16:41:08;19.15;;;10.43;;
74920;SDS011;63483;47.384;8.860;2023-02-22T16:43:34;18.67;;;10.23;;
74920;SDS011;63483;47.384;8.860;2023-02-22T16:46:00;19.55;;;10.80;;
74920;SDS011;63483;47.384;8.860;2023-02-22T16:48:27;18.70;;;10.50;;
74920;SDS011;63483;47.384;8.860;2023-02-22T16:50:55;17.55;;;10.07;;
74920;SDS011;63483;47.384;8.860;2023-02-22T16:53:24;18.07;;;10.97;;
74920;SDS011;63483;47.384;8.860;2023-02-22T16:55:51;18.52;;;11.05;;
74920;SDS011;63483;47.384;8.860;2023-02-22T16:58:24;15.65;;;9.05;;
74920;SDS011;63483;47.384;8.860;2023-02-22T17:00:54;16.90;;;10.27;;
74920;SDS011;63483;47.384;8.860;2023-02-22T17:03:21;17.20;;;9.82;;
74920;SDS011;63483;47.384;8.860;2023-02-22T17:05:47;18.00;;;10.97;;
74920;SDS011;63483;47.384;8.860;2023-02-22T17:08:12;18.57;;;9.40;;
74920;SDS011;63483;47.384;8.860;2023-02-22T17:10:40;15.48;;;9.32;;
74920;SDS011;63483;47.384;8.860;2023-02-22T17:13:05;17.23;;;9.82;;
74920;SDS011;63483;47.384;8.860;2023-02-22T17:15:32;17.60;;;9.23;;
74920;SDS011;63483;47.384;8.860;2023-02-22T17:17:59;20.77;;;10.27;;
74920;SDS011;63483;47.384;8.860;2023-02-22T17:20:28;16.77;;;9.48;;
74920;SDS011;63483;47.384;8.860;2023-02-22T17:22:58;18.30;;;10.45;;
74920;SDS011;63483;47.384;8.860;2023-02-22T17:25:32;16.25;;;10.05;;
74920;SDS011;63483;47.384;8.860;2023-02-22T17:28:03;17.77;;;10.80;;